Kezar Falls, Maine
Current Conditions -  °F | °C
As of 2:54 PM on Sunday 23 Nov 2014 (Local Time) from KIZG Reporting Station
Few Clouds Few Clouds  
Wind Chill: 51°   Ceiling: Unl
Heat Index: 51°   Visibility: 10mi
Dew Point: 39°   Wind: 6mph
Humidity: 63%   Direction: 250°WSW
Pressure: 30.07"   Gusts: NA
Location:  43.7658°N, 70.9172°W
Report Text: KIZG 231954Z AUTO 25005KT 10SM FEW060 11/04 A3007 RMK AO2 SLP187 T01060039
Loading
Personal Weather Stations






























Interactive Weather Map New forecast layout! Learn more

10-Day Weather Forecast

Advertisements
Track Severe Weather on mobile